Etusivu
METAR-TAF:

METAR-TAF

Lentoasemat :

Caracas, Venezuela

Leveyspiiri: 10-36N, Pituuspiiri: 066-59W, korkeus merenpinnasta: 43 m

Tämänhetkinen sää

Tämä raportti tehtiin 22 minuuttia sitten, kello 10.00 UTC
tyyntä
Lämpötila 21°C
Kosteus 94%
Ilmanpaine 1009 hPa
Näkyvyys 10 km tai enemmän
Hajanaisia pilviä 1600 ft:n korkeudessa

METAR: SVMI 261000Z 00000KT 9999 SCT016 21/20 Q1009

Aika: 06:22 (10:22 UTC)

Sääennuste

Tämä raportti tehtiin 6 tuntia ja 22 minuuttia sitten, kello 04.00 UTC
Ennuste voimassa 26. päivästä klo 06 UTC - 27. päivään klo 06 UTC
Tuuli 5 kn idästä
Näkyvyys 10 km tai enemmän
Hajonneita pilviä 1600 ft:n korkeudessa
Ajoittain
26. päivästä klo 06 UTC - 26. päivään klo 10 UTC
Tuuli kn pohjoisesta
Näkyvyys: 9000 m
Hajonneita pilviä 1600 ft:n korkeudessa
heikkoa tihkusadetta

TAF: SVMI 260400Z 2606/2706 09005KT 9999 BKN016 TX29/1800Z TN20/0900Z TEMPO 2606/2610 00000KT 9000 -DZ BKN016

Säähavainnot ja -ennusteet yli 4000 lentoasemalta (METAR- ja TAF-raportit).

Käytössä olevat sääasemat on merkitty karttaan keltaisilla ja punaisilla pisteillä.

Aseta hiiri pisteen päälle nähdäksesi sääaseman nimen.

Klikkaa sitten nähdäksesi säähavainnot ja -ennusteet.

Kartan vaihtaminen: klikkaa mustalla rastilla varustettuja vihreitä pisteitä, niin voit zoomata sisään; viivalla varustettua vihreää pistettä, niin voit zoomata ulos tai vihreitä nuolia, niin pääset viereisille kartoille.


METAR-TAF: